createdAt,value
2019-04-21T00:02:22.865Z,100942.00
2019-04-21T00:05:06.153Z,100952.00
2019-04-21T00:07:49.431Z,100948.00
2019-04-21T00:10:18.839Z,100936.00
2019-04-21T00:12:52.033Z,100935.00
2019-04-21T00:15:22.866Z,100929.00
2019-04-21T00:17:51.756Z,100926.00
2019-04-21T00:20:31.038Z,100924.00
2019-04-21T00:23:13.110Z,100921.00
2019-04-21T00:25:46.063Z,100913.00
2019-04-21T00:28:31.221Z,100913.00
2019-04-21T00:31:00.574Z,100902.00
2019-04-21T00:33:21.587Z,100900.00
2019-04-21T00:35:59.283Z,100902.00
2019-04-21T00:38:51.382Z,100894.00
2019-04-21T00:41:23.525Z,100893.00
2019-04-21T00:43:49.482Z,100887.00
2019-04-21T00:46:27.976Z,100883.00
2019-04-21T00:49:03.141Z,100892.00
2019-04-21T00:51:54.322Z,100880.00
2019-04-21T00:54:29.376Z,100885.00
2019-04-21T00:56:57.564Z,100882.00
2019-04-21T00:59:35.350Z,100887.00
2019-04-21T01:01:59.723Z,100878.00
2019-04-21T01:07:17.632Z,100882.00
2019-04-21T01:09:42.664Z,100880.00
2019-04-21T01:12:22.895Z,100870.00
2019-04-21T01:15:04.749Z,100871.00
2019-04-21T01:17:30.573Z,100870.00
2019-04-21T01:20:01.453Z,100869.00
2019-04-21T01:22:18.969Z,100859.00
2019-04-21T01:25:00.103Z,100858.00
2019-04-21T01:27:50.739Z,100858.00
2019-04-21T01:30:23.728Z,100858.00
2019-04-21T01:32:59.537Z,100852.00
2019-04-21T01:35:38.124Z,100849.00
2019-04-21T01:38:12.550Z,100848.00
2019-04-21T01:40:59.123Z,100839.00
2019-04-21T01:43:15.036Z,100843.00
2019-04-21T01:45:54.945Z,100836.00
2019-04-21T01:48:25.947Z,100837.00
2019-04-21T01:51:00.619Z,100832.00
2019-04-21T01:54:05.150Z,100833.00
2019-04-21T01:57:01.963Z,100837.00
2019-04-21T01:59:32.005Z,100825.00
2019-04-21T02:02:10.656Z,100819.00
2019-04-21T02:04:50.571Z,100823.00
2019-04-21T02:07:27.107Z,100814.00
2019-04-21T02:10:05.158Z,100821.00
2019-04-21T02:12:31.647Z,100817.00
2019-04-21T02:15:14.327Z,100815.00
2019-04-21T02:17:43.433Z,100800.00
2019-04-21T02:20:14.705Z,100802.00
2019-04-21T02:23:20.441Z,100799.00
2019-04-21T02:25:35.305Z,100801.00
2019-04-21T02:28:03.761Z,100796.00
2019-04-21T02:38:40.169Z,100791.00
2019-04-21T02:41:26.487Z,100787.00
2019-04-21T02:43:44.907Z,100784.00
2019-04-21T02:46:23.655Z,100788.00
2019-04-21T02:48:58.280Z,100772.00
2019-04-21T02:51:27.647Z,100783.00
2019-04-21T02:54:32.346Z,100776.00
2019-04-21T02:56:48.720Z,100778.00
2019-04-21T02:59:18.185Z,100765.00
2019-04-21T03:04:53.142Z,100761.00
2019-04-21T03:07:52.287Z,100775.00
2019-04-21T03:10:10.790Z,100756.00
2019-04-21T03:12:38.124Z,100765.00
2019-04-21T03:15:25.558Z,100749.00
2019-04-21T03:17:54.977Z,100749.00
2019-04-21T03:20:29.173Z,100748.00
2019-04-21T03:23:03.067Z,100758.00
2019-04-21T03:25:41.877Z,100744.00
2019-04-21T03:28:16.279Z,100757.00
2019-04-21T03:31:08.961Z,100755.00
2019-04-21T03:38:28.959Z,100745.00
2019-04-21T03:41:05.137Z,100746.00
2019-04-21T03:43:40.163Z,100749.00
2019-04-21T03:46:08.575Z,100740.00
2019-04-21T03:53:55.847Z,100736.00
2019-04-21T03:56:53.014Z,100737.00
2019-04-21T03:59:03.398Z,100735.00
2019-04-21T04:01:50.619Z,100737.00
2019-04-21T04:10:08.263Z,100730.00
2019-04-21T04:12:40.760Z,100737.00
2019-04-21T04:15:22.820Z,100733.00
2019-04-21T04:17:46.166Z,100725.00
2019-04-21T04:23:03.316Z,100737.00
2019-04-21T04:28:36.264Z,100731.00
2019-04-21T04:30:45.859Z,100726.00
2019-04-21T04:33:34.427Z,100730.00
2019-04-21T04:36:04.315Z,100726.00
2019-04-21T04:41:42.094Z,100738.00
2019-04-21T04:44:17.153Z,100728.00
2019-04-21T04:46:45.583Z,100733.00
2019-04-21T04:49:23.651Z,100726.00
2019-04-21T04:52:19.276Z,100729.00
2019-04-21T04:54:44.858Z,100723.00
2019-04-21T04:57:08.167Z,100730.00
2019-04-21T04:59:53.985Z,100726.00
2019-04-21T05:02:23.225Z,100735.00
2019-04-21T05:07:25.130Z,100728.00
2019-04-21T05:09:52.230Z,100723.00
2019-04-21T05:15:11.402Z,100740.00
2019-04-21T05:17:49.159Z,100739.00
2019-04-21T05:20:11.546Z,100748.00
2019-04-21T05:22:42.780Z,100739.00
2019-04-21T05:25:08.590Z,100742.00
2019-04-21T05:27:43.281Z,100757.00
2019-04-21T05:33:32.130Z,100744.00
2019-04-21T05:36:11.041Z,100746.00
2019-04-21T05:38:58.434Z,100751.00
2019-04-21T05:41:26.175Z,100760.00
2019-04-21T05:44:14.027Z,100762.00
2019-04-21T05:46:49.662Z,100759.00
2019-04-21T05:49:28.025Z,100764.00
2019-04-21T05:51:59.709Z,100765.00
2019-04-21T05:54:44.374Z,100771.00
2019-04-21T05:57:13.329Z,100773.00
2019-04-21T05:59:49.041Z,100779.00
2019-04-21T06:02:28.944Z,100760.00
2019-04-21T06:05:14.186Z,100766.00
2019-04-21T06:07:34.713Z,100764.00
2019-04-21T06:10:07.267Z,100768.00
2019-04-21T06:12:57.853Z,100767.00
2019-04-21T06:15:19.728Z,100767.00
2019-04-21T06:17:57.869Z,100764.00
2019-04-21T06:20:37.011Z,100772.00
2019-04-21T06:23:04.801Z,100780.00
2019-04-21T06:28:21.009Z,100769.00
2019-04-21T06:30:59.382Z,100766.00
2019-04-21T06:33:27.514Z,100764.00
2019-04-21T06:36:36.194Z,100763.00
2019-04-21T06:39:17.418Z,100749.00
2019-04-21T06:41:36.363Z,100752.00
2019-04-21T06:44:11.922Z,100749.00
2019-04-21T06:46:44.952Z,100752.00
2019-04-21T06:49:13.143Z,100761.00
2019-04-21T06:51:57.605Z,100753.00
2019-04-21T06:54:34.167Z,100764.00
2019-04-21T06:57:00.832Z,100752.00
2019-04-21T06:59:38.430Z,100757.00
2019-04-21T07:02:35.162Z,100756.00
2019-04-21T07:07:26.396Z,100753.00
2019-04-21T07:10:08.963Z,100744.00
2019-04-21T07:12:33.646Z,100749.00
2019-04-21T07:15:11.038Z,100751.00
2019-04-21T07:17:41.435Z,100756.00
2019-04-21T07:20:17.263Z,100761.00
2019-04-21T07:22:58.956Z,100753.00
2019-04-21T07:25:32.678Z,100752.00
2019-04-21T07:28:02.919Z,100751.00
2019-04-21T07:30:54.619Z,100748.00
2019-04-21T07:33:37.774Z,100755.00
2019-04-21T07:35:47.057Z,100742.00
2019-04-21T07:38:24.477Z,100746.00
2019-04-21T07:40:52.644Z,100745.00
2019-04-21T07:43:28.533Z,100745.00
2019-04-21T07:45:58.130Z,100739.00
2019-04-21T07:48:58.729Z,100751.00
2019-04-21T07:51:45.614Z,100739.00
2019-04-21T07:54:30.469Z,100741.00
2019-04-21T07:56:39.392Z,100743.00
2019-04-21T07:59:41.126Z,100741.00
2019-04-21T08:02:04.164Z,100735.00
2019-04-21T08:04:52.703Z,100741.00
2019-04-21T08:07:14.600Z,100747.00
2019-04-21T08:09:47.333Z,100743.00
2019-04-21T08:12:15.798Z,100736.00
2019-04-21T08:14:59.611Z,100742.00
2019-04-21T08:17:30.738Z,100736.00
2019-04-21T08:20:02.763Z,100741.00
2019-04-21T08:23:09.199Z,100746.00
2019-04-21T08:25:14.676Z,100734.00
2019-04-21T08:30:27.438Z,100725.00
2019-04-21T08:33:09.262Z,100736.00
2019-04-21T08:35:59.479Z,100717.00
2019-04-21T08:38:10.612Z,100716.00
2019-04-21T08:40:51.123Z,100707.00
2019-04-21T08:43:30.626Z,100721.00
2019-04-21T08:45:52.745Z,100719.00
2019-04-21T08:48:28.617Z,100724.00
2019-04-21T08:51:14.061Z,100723.00
2019-04-21T08:53:42.258Z,100716.00
2019-04-21T08:56:25.442Z,100719.00
2019-04-21T08:59:22.202Z,100717.00
2019-04-21T09:02:02.407Z,100715.00
2019-04-21T09:04:33.901Z,100720.00
2019-04-21T09:07:16.286Z,100715.00
2019-04-21T09:09:46.777Z,100721.00
2019-04-21T09:12:21.175Z,100693.00
2019-04-21T09:14:54.208Z,100702.00
2019-04-21T09:17:25.082Z,100702.00
2019-04-21T09:20:13.842Z,100697.00
2019-04-21T09:22:41.279Z,100702.00
2019-04-21T09:25:19.369Z,100691.00
2019-04-21T09:27:48.943Z,100690.00
2019-04-21T09:30:06.917Z,100695.00
2019-04-21T09:32:42.338Z,100693.00
2019-04-21T09:35:17.363Z,100696.00
2019-04-21T09:37:57.318Z,100691.00
2019-04-21T09:40:30.187Z,100684.00
2019-04-21T09:43:04.968Z,100688.00
2019-04-21T09:45:35.593Z,100681.00
2019-04-21T09:48:14.997Z,100677.00
2019-04-21T09:50:43.413Z,100668.00
2019-04-21T09:53:24.923Z,100667.00
2019-04-21T09:55:56.719Z,100666.00
2019-04-21T09:58:32.859Z,100663.00
2019-04-21T10:01:12.273Z,100667.00
2019-04-21T10:03:42.804Z,100661.00
2019-04-21T10:06:11.275Z,100658.00
2019-04-21T10:08:51.839Z,100656.00
2019-04-21T10:11:21.064Z,100655.00
2019-04-21T10:13:55.139Z,100648.00
2019-04-21T10:16:45.863Z,100646.00
2019-04-21T10:19:21.005Z,100642.00
2019-04-21T10:21:54.295Z,100647.00
2019-04-21T10:24:28.504Z,100645.00
2019-04-21T10:27:04.096Z,100645.00
2019-04-21T10:29:41.276Z,100638.00
2019-04-21T10:32:11.456Z,100623.00
2019-04-21T10:34:45.269Z,100612.00
2019-04-21T10:37:18.803Z,100622.00
2019-04-21T10:39:53.794Z,100624.00
2019-04-21T10:42:28.867Z,100620.00
2019-04-21T10:45:03.320Z,100622.00
2019-04-21T10:47:36.860Z,100612.00
2019-04-21T10:50:12.897Z,100597.00
2019-04-21T10:53:18.844Z,100606.00
2019-04-21T10:56:06.481Z,100602.00
2019-04-21T10:58:29.220Z,100592.00
2019-04-21T11:01:08.457Z,100597.00
2019-04-21T11:04:00.633Z,100590.00
2019-04-21T11:06:34.709Z,100588.00
2019-04-21T11:09:08.901Z,100587.00
2019-04-21T11:11:46.449Z,100578.00
2019-04-21T11:14:18.629Z,100570.00
2019-04-21T11:16:53.432Z,100571.00
2019-04-21T11:19:28.629Z,100559.00
2019-04-21T11:22:02.874Z,100555.00
2019-04-21T11:24:36.742Z,100571.00
2019-04-21T11:27:10.950Z,100559.00
2019-04-21T11:29:43.782Z,100553.00
2019-04-21T11:32:16.888Z,100538.00
2019-04-21T11:34:49.900Z,100544.00
2019-04-21T11:37:28.205Z,100549.00
2019-04-21T11:40:07.320Z,100549.00
2019-04-21T11:42:39.682Z,100548.00
2019-04-21T11:45:26.436Z,100537.00
2019-04-21T11:48:18.921Z,100540.00
2019-04-21T11:50:53.089Z,100531.00
2019-04-21T11:53:26.129Z,100521.00
2019-04-21T11:55:59.029Z,100518.00
2019-04-21T11:58:32.062Z,100521.00
2019-04-21T12:01:05.744Z,100525.00
2019-04-21T12:03:39.947Z,100522.00
2019-04-21T12:06:13.438Z,100522.00
2019-04-21T12:08:49.928Z,100518.00
2019-04-21T12:11:21.434Z,100507.00
2019-04-21T12:13:54.575Z,100521.00
2019-04-21T12:16:28.673Z,100512.00
2019-04-21T12:19:03.027Z,100512.00
2019-04-21T12:21:50.592Z,100499.00
2019-04-21T12:24:11.149Z,100502.00
2019-04-21T12:26:44.496Z,100501.00
2019-04-21T12:29:18.886Z,100500.00
2019-04-21T12:32:17.958Z,100495.00
2019-04-21T12:34:52.183Z,100486.00
2019-04-21T12:37:26.864Z,100475.00
2019-04-21T12:40:00.826Z,100486.00
2019-04-21T12:42:34.555Z,100480.00
2019-04-21T12:45:07.686Z,100470.00
2019-04-21T12:47:41.829Z,100463.00
2019-04-21T12:50:15.236Z,100467.00
2019-04-21T12:52:49.566Z,100460.00
2019-04-21T12:55:23.962Z,100471.00
2019-04-21T12:57:57.391Z,100463.00
2019-04-21T13:00:31.238Z,100465.00
2019-04-21T13:03:04.199Z,100453.00
2019-04-21T13:05:37.880Z,100458.00
2019-04-21T13:08:11.456Z,100451.00
2019-04-21T13:10:44.868Z,100440.00
2019-04-21T13:13:17.854Z,100440.00
2019-04-21T13:15:51.675Z,100442.00
2019-04-21T13:18:24.624Z,100441.00
2019-04-21T13:20:59.386Z,100429.00
2019-04-21T13:23:32.200Z,100435.00
2019-04-21T13:26:06.507Z,100425.00
2019-04-21T13:28:40.419Z,100424.00
2019-04-21T13:31:16.053Z,100413.00
2019-04-21T13:33:50.179Z,100421.00
2019-04-21T13:36:23.529Z,100409.00
2019-04-21T13:42:08.778Z,100408.00
2019-04-21T13:44:32.930Z,100408.00
2019-04-21T13:47:06.946Z,100405.00
2019-04-21T13:49:41.389Z,100398.00
2019-04-21T13:52:15.013Z,100392.00
2019-04-21T13:54:47.953Z,100386.00
2019-04-21T13:57:20.840Z,100384.00
2019-04-21T13:59:55.025Z,100388.00
2019-04-21T14:02:28.972Z,100368.00
2019-04-21T14:05:03.369Z,100362.00
2019-04-21T14:07:36.527Z,100369.00
2019-04-21T14:10:12.449Z,100361.00
2019-04-21T14:12:46.728Z,100357.00
2019-04-21T14:15:20.290Z,100363.00
2019-04-21T14:17:53.255Z,100353.00
2019-04-21T14:20:27.114Z,100353.00
2019-04-21T14:23:13.754Z,100355.00
2019-04-21T14:25:35.512Z,100363.00
2019-04-21T14:28:08.501Z,100360.00
2019-04-21T14:30:41.361Z,100359.00
2019-04-21T14:33:14.252Z,100350.00
2019-04-21T14:35:47.211Z,100350.00
2019-04-21T14:38:20.592Z,100350.00
2019-04-21T14:40:54.406Z,100350.00
2019-04-21T14:43:28.054Z,100337.00
2019-04-21T14:46:13.209Z,100343.00
2019-04-21T14:49:11.127Z,100332.00
2019-04-21T14:52:23.123Z,100331.00
2019-04-21T14:55:24.968Z,100335.00
2019-04-21T14:57:59.050Z,100323.00
2019-04-21T15:01:04.152Z,100316.00
2019-04-21T15:03:37.617Z,100318.00
2019-04-21T15:06:11.626Z,100316.00
2019-04-21T15:08:44.908Z,100318.00
2019-04-21T15:11:18.124Z,100312.00
2019-04-21T15:13:51.425Z,100317.00
2019-04-21T15:16:24.967Z,100311.00
2019-04-21T15:18:59.029Z,100307.00
2019-04-21T15:21:33.322Z,100313.00
2019-04-21T15:24:06.564Z,100314.00
2019-04-21T15:26:40.163Z,100314.00
2019-04-21T15:29:14.993Z,100300.00
2019-04-21T15:31:48.429Z,100309.00
2019-04-21T15:34:23.948Z,100303.00
2019-04-21T15:36:57.997Z,100299.00
2019-04-21T15:39:31.839Z,100288.00
2019-04-21T15:42:06.207Z,100293.00
2019-04-21T15:44:40.655Z,100289.00
2019-04-21T15:47:13.766Z,100301.00
2019-04-21T15:50:03.036Z,100285.00
2019-04-21T15:52:31.645Z,100291.00
2019-04-21T15:55:17.151Z,100293.00
2019-04-21T15:58:12.291Z,100282.00
2019-04-21T16:00:56.978Z,100280.00
2019-04-21T16:03:31.089Z,100283.00
2019-04-21T16:06:05.485Z,100271.00
2019-04-21T16:08:39.549Z,100273.00
2019-04-21T16:11:13.643Z,100268.00
2019-04-21T16:13:47.838Z,100270.00
2019-04-21T16:16:24.875Z,100261.00
2019-04-21T16:18:56.330Z,100261.00
2019-04-21T16:21:29.593Z,100257.00
2019-04-21T16:24:02.690Z,100256.00
2019-04-21T16:26:38.304Z,100255.00
2019-04-21T16:29:13.356Z,100251.00
2019-04-21T16:31:47.011Z,100237.00
2019-04-21T16:34:20.035Z,100240.00
2019-04-21T16:36:53.924Z,100232.00
2019-04-21T16:39:27.331Z,100236.00
2019-04-21T16:42:00.452Z,100236.00
2019-04-21T16:44:34.646Z,100236.00
2019-04-21T16:47:07.800Z,100232.00
2019-04-21T16:49:40.686Z,100228.00
2019-04-21T16:52:18.278Z,100225.00
2019-04-21T16:55:00.219Z,100222.00
2019-04-21T16:57:37.812Z,100225.00
2019-04-21T17:00:26.960Z,100217.00
2019-04-21T17:02:52.378Z,100208.00
2019-04-21T17:05:25.296Z,100219.00
2019-04-21T17:07:59.617Z,100216.00
2019-04-21T17:10:32.867Z,100213.00
2019-04-21T17:13:06.233Z,100217.00
2019-04-21T17:15:53.133Z,100202.00
2019-04-21T17:18:36.120Z,100197.00
2019-04-21T17:20:53.905Z,100201.00
2019-04-21T17:23:25.153Z,100203.00
2019-04-21T17:25:59.210Z,100200.00
2019-04-21T17:28:32.355Z,100204.00
2019-04-21T17:31:06.582Z,100199.00
2019-04-21T17:33:39.623Z,100196.00
2019-04-21T17:36:12.461Z,100187.00
2019-04-21T17:38:45.936Z,100194.00
2019-04-21T17:41:29.465Z,100182.00
2019-04-21T17:43:53.687Z,100184.00
2019-04-21T17:46:36.592Z,100186.00
2019-04-21T17:49:03.202Z,100181.00
2019-04-21T17:52:05.956Z,100184.00
2019-04-21T17:54:45.292Z,100192.00
2019-04-21T17:57:36.674Z,100187.00
2019-04-21T18:00:14.206Z,100179.00
2019-04-21T18:02:51.485Z,100192.00
2019-04-21T18:05:22.905Z,100189.00
2019-04-21T18:07:55.824Z,100188.00
2019-04-21T18:10:37.369Z,100169.00
2019-04-21T18:13:03.744Z,100179.00
2019-04-21T18:15:40.205Z,100167.00
2019-04-21T18:18:02.958Z,100170.00
2019-04-21T18:20:39.936Z,100179.00
2019-04-21T18:23:46.063Z,100175.00
2019-04-21T18:26:15.806Z,100172.00
2019-04-21T18:28:42.065Z,100168.00
2019-04-21T18:31:14.930Z,100163.00
2019-04-21T18:34:03.482Z,100168.00
2019-04-21T18:36:38.333Z,100166.00
2019-04-21T18:39:46.448Z,100164.00
2019-04-21T18:42:31.208Z,100160.00
2019-04-21T18:48:20.050Z,100160.00
2019-04-21T18:51:04.672Z,100158.00
2019-04-21T18:53:54.310Z,100155.00
2019-04-21T18:56:17.714Z,100151.00
2019-04-21T18:58:50.912Z,100147.00
2019-04-21T19:01:27.748Z,100147.00
2019-04-21T19:04:00.301Z,100150.00
2019-04-21T19:06:51.901Z,100158.00
2019-04-21T19:09:41.419Z,100153.00
2019-04-21T19:12:00.772Z,100160.00
2019-04-21T19:14:50.994Z,100148.00
2019-04-21T19:22:31.326Z,100145.00
2019-04-21T19:24:59.793Z,100144.00
2019-04-21T19:27:32.182Z,100140.00
2019-04-21T19:30:12.240Z,100142.00
2019-04-21T19:32:39.544Z,100138.00
2019-04-21T19:35:02.388Z,100134.00
2019-04-21T19:37:44.052Z,100136.00
2019-04-21T19:40:31.044Z,100102.00
2019-04-21T19:42:55.924Z,100127.00
2019-04-21T19:45:35.484Z,100123.00
2019-04-21T19:48:15.351Z,100125.00
2019-04-21T19:50:50.541Z,100119.00
2019-04-21T19:53:28.610Z,100120.00
2019-04-21T19:55:42.459Z,100118.00
2019-04-21T19:58:20.608Z,100119.00
2019-04-21T20:00:53.485Z,100120.00
2019-04-21T20:03:26.333Z,100115.00
2019-04-21T20:06:08.643Z,100110.00
2019-04-21T20:08:46.707Z,100105.00
2019-04-21T20:11:31.112Z,100100.00
2019-04-21T20:14:32.582Z,100090.00
2019-04-21T20:16:41.373Z,100088.00
2019-04-21T20:18:59.184Z,100091.00
2019-04-21T20:21:29.340Z,100088.00
2019-04-21T20:24:09.495Z,100088.00
2019-04-21T20:26:42.030Z,100090.00
2019-04-21T20:29:29.875Z,100089.00
2019-04-21T20:32:12.811Z,100084.00
2019-04-21T20:34:38.499Z,100084.00
2019-04-21T20:37:17.428Z,100080.00
2019-04-21T20:39:45.596Z,100076.00
2019-04-21T20:42:20.981Z,100079.00
2019-04-21T20:45:16.679Z,100075.00
2019-04-21T20:47:25.696Z,100069.00
2019-04-21T20:50:03.279Z,100059.00
2019-04-21T20:52:50.577Z,100066.00
2019-04-21T20:55:14.080Z,100068.00
2019-04-21T20:57:48.644Z,100066.00
2019-04-21T21:00:30.139Z,100052.00
2019-04-21T21:03:09.280Z,100046.00
2019-04-21T21:05:37.580Z,100048.00
2019-04-21T21:08:18.044Z,100041.00
2019-04-21T21:10:43.948Z,100043.00
2019-04-21T21:16:12.185Z,100039.00
2019-04-21T21:21:11.609Z,100045.00
2019-04-21T21:23:51.307Z,100045.00
2019-04-21T21:26:25.796Z,100037.00
2019-04-21T21:28:49.832Z,100014.00
2019-04-21T21:31:33.180Z,100029.00
2019-04-21T21:34:10.053Z,100028.00
2019-04-21T21:36:43.155Z,100036.00
2019-04-21T21:39:15.550Z,100034.00
2019-04-21T21:41:38.537Z,100028.00
2019-04-21T21:44:12.727Z,100025.00
2019-04-21T21:46:55.098Z,100037.00
2019-04-21T21:49:40.893Z,100033.00
2019-04-21T21:51:59.291Z,100042.00
2019-04-21T21:54:25.816Z,100032.00
2019-04-21T21:56:58.749Z,100026.00
2019-04-21T21:59:35.092Z,100030.00
2019-04-21T22:02:09.504Z,100026.00
2019-04-21T22:04:52.893Z,100020.00
2019-04-21T22:07:19.460Z,100012.00
2019-04-21T22:09:52.318Z,100010.00
2019-04-21T22:12:26.132Z,100012.00
2019-04-21T22:15:02.437Z,100007.00
2019-04-21T22:17:49.370Z,100011.00
2019-04-21T22:20:35.018Z,100008.00
2019-04-21T22:22:56.354Z,100016.00
2019-04-21T22:25:26.755Z,100013.00
2019-04-21T22:27:57.764Z,100005.00
2019-04-21T22:30:38.193Z,100009.00
2019-04-21T22:33:10.471Z,100003.00
2019-04-21T22:35:46.327Z,100005.00
2019-04-21T22:38:37.592Z,100008.00
2019-04-21T22:41:06.088Z,100010.00
2019-04-21T22:43:32.877Z,100009.00
2019-04-21T22:46:01.228Z,100011.00
2019-04-21T22:48:34.777Z,100005.00
2019-04-21T22:51:18.811Z,100006.00
2019-04-21T22:53:48.305Z,100000.00
2019-04-21T22:56:23.593Z,100008.00
2019-04-21T22:58:53.127Z,100006.00
2019-04-21T23:01:33.478Z,100018.00
2019-04-21T23:04:02.881Z,100009.00
2019-04-21T23:06:38.916Z,100004.00
2019-04-21T23:09:11.096Z,100010.00
2019-04-21T23:11:49.226Z,100004.00
2019-04-21T23:14:21.509Z,100001.00
2019-04-21T23:17:14.940Z,100005.00
2019-04-21T23:19:42.286Z,100001.00
2019-04-21T23:22:24.833Z,99993.00
2019-04-21T23:25:03.795Z,99993.00
2019-04-21T23:27:33.740Z,99996.00
2019-04-21T23:30:13.632Z,99996.00
2019-04-21T23:32:37.467Z,99993.00
2019-04-21T23:35:10.607Z,99996.00
2019-04-21T23:37:41.777Z,99989.00
2019-04-21T23:40:17.572Z,99987.00
2019-04-21T23:42:45.460Z,99976.00
2019-04-21T23:45:25.284Z,99990.00
2019-04-21T23:48:10.777Z,99983.00
2019-04-21T23:50:37.935Z,99985.00
2019-04-21T23:53:03.931Z,99986.00
2019-04-21T23:55:37.111Z,99983.00
2019-04-21T23:58:17.764Z,99981.00
